Time;durP1;ratioP1;P1;durP2;ratioP2;P2;SDS_P1;SDS_P2;PMS_P1;PMS_P2;Temp;Humidity;BMP_temperature;BMP_pressure;BME280_temperature;BME280_humidity;BME280_pressure;Samples;Min_cycle;Max_cycle;Signal;HPM_P1;HPM_P2
2023/10/11 00:01:46;;;;;;;;;;;;;;;21.76;28.79;101895.92;103085;1288;61378;-81
2023/10/11 00:04:23;;;;;;;;;;;;;;;21.76;28.74;101896.46;103031;1293;61414;-80
2023/10/11 00:06:49;;;;;;;;;;;;;;;21.77;28.84;101897.52;103048;1292;72321;-80
2023/10/11 00:09:16;;;;;;;;;;;;;;;21.77;28.84;101900.20;102974;1291;61306;-81
2023/10/11 00:11:42;;;;;;;;;;;;;;;21.76;28.78;101907.04;103265;1288;61359;-81
2023/10/11 00:14:08;;;;;;;;;;;;;;;21.76;28.83;101907.20;103103;1292;61396;-80
2023/10/11 00:16:35;;;;;;;;;;;;;;;21.76;28.85;101905.97;103213;1292;61402;-81
2023/10/11 00:19:01;;;;;;;;;;;;;;;21.76;28.96;101907.58;103048;1293;61378;-81
2023/10/11 00:21:40;;;;;;;;;;;;;;;21.76;28.85;101905.98;103219;1288;61405;-80
2023/10/11 00:24:07;;;;;;;;;;;;;;;21.76;28.83;101905.61;103162;1290;62304;-81
2023/10/11 00:26:34;;;;;;;;;;;;;;;21.76;28.85;101905.44;103164;1294;72212;-83
2023/10/11 00:29:04;;;;;;;;;;;;;;;21.76;28.86;101907.95;103060;1293;74255;-82
2023/10/11 00:31:31;;;;;;;;;;;;;;;21.75;28.84;101910.50;103094;1291;61418;-82
2023/10/11 00:33:57;;;;;;;;;;;;;;;21.76;28.82;101907.79;102956;1293;61391;-81
2023/10/11 00:36:29;;;;;;;;;;;;;;;21.75;28.81;101907.83;103254;1287;61423;-81
2023/10/11 00:38:56;;;;;;;;;;;;;;;21.75;28.88;101905.14;103334;1291;75469;-79
2023/10/11 00:41:25;;;;;;;;;;;;;;;21.75;28.86;101901.59;103291;1291;61323;-81
2023/10/11 00:43:54;;;;;;;;;;;;;;;21.75;28.84;101901.56;103030;1289;61481;-82
2023/10/11 00:46:23;;;;;;;;;;;;;;;21.75;28.78;101901.94;103141;1294;72606;-82
2023/10/11 00:49:12;;;;;;;;;;;;;;;21.75;28.79;101903.73;102942;1292;74514;-81
2023/10/11 00:51:38;;;;;;;;;;;;;;;21.74;28.75;101908.95;103243;1290;61397;-80
2023/10/11 00:54:13;;;;;;;;;;;;;;;21.74;28.91;101912.17;103270;1289;61330;-83
2023/10/11 00:56:43;;;;;;;;;;;;;;;21.74;28.73;101915.02;103034;1288;73818;-81
2023/10/11 00:59:10;;;;;;;;;;;;;;;21.74;28.73;101913.08;103324;1292;74365;-81
2023/10/11 01:01:59;;;;;;;;;;;;;;;21.74;28.80;101913.23;103115;1293;62324;-80
2023/10/11 01:04:33;;;;;;;;;;;;;;;21.74;28.91;101913.06;102777;1294;62192;-81
2023/10/11 01:06:59;;;;;;;;;;;;;;;21.74;28.76;101921.48;102600;1297;72493;-81
2023/10/11 01:09:28;;;;;;;;;;;;;;;21.74;28.84;101918.64;102518;1300;61408;-81
2023/10/11 01:11:54;;;;;;;;;;;;;;;21.74;28.87;101916.30;102598;1293;62545;-81
2023/10/11 01:14:19;;;;;;;;;;;;;;;21.74;28.64;101920.77;102540;1294;61394;-82
2023/10/11 01:16:51;;;;;;;;;;;;;;;21.74;28.86;101919.35;102567;1298;72476;-82
2023/10/11 01:19:18;;;;;;;;;;;;;;;21.74;28.83;101924.02;102565;1294;74423;-81
2023/10/11 01:21:47;;;;;;;;;;;;;;;21.74;28.91;101919.54;102720;1298;62416;-82
2023/10/11 01:24:16;;;;;;;;;;;;;;;21.74;28.93;101921.88;102774;1293;61302;-80
2023/10/11 01:26:42;;;;;;;;;;;;;;;21.74;28.76;101920.63;102632;1298;72571;-81
2023/10/11 01:29:09;;;;;;;;;;;;;;;21.74;28.78;101921.52;102572;1294;61589;-81
2023/10/11 01:31:35;;;;;;;;;;;;;;;21.73;28.87;101921.00;102724;1294;61408;-81
2023/10/11 01:34:01;;;;;;;;;;;;;;;21.73;28.83;101920.65;102573;1294;61441;-81
2023/10/11 01:36:26;;;;;;;;;;;;;;;21.73;28.85;101920.48;102546;1299;61596;-80
2023/10/11 01:38:52;;;;;;;;;;;;;;;21.73;28.89;101925.52;102564;1294;61575;-82
2023/10/11 01:41:20;;;;;;;;;;;;;;;21.73;28.88;101928.73;102867;1297;61537;-81
2023/10/11 01:43:46;;;;;;;;;;;;;;;21.72;28.70;101927.86;103189;1287;61357;-80
2023/10/11 01:46:16;;;;;;;;;;;;;;;21.73;28.84;101929.13;103041;1293;61317;-82
2023/10/11 01:48:42;;;;;;;;;;;;;;;21.73;28.81;101929.30;103097;1292;74270;-81
2023/10/11 01:51:09;;;;;;;;;;;;;;;21.73;28.78;101930.73;103259;1286;62740;-82
2023/10/11 01:53:35;;;;;;;;;;;;;;;21.72;28.88;101926.80;103174;1288;61578;-82
2023/10/11 01:56:03;;;;;;;;;;;;;;;21.72;28.79;101928.62;103044;1290;62507;-81
2023/10/11 01:58:29;;;;;;;;;;;;;;;21.72;28.83;101926.98;103196;1288;74431;-81
2023/10/11 02:00:55;;;;;;;;;;;;;;;21.72;28.79;101929.67;103190;1288;61392;-81
2023/10/11 02:03:24;;;;;;;;;;;;;;;21.72;28.86;101927.91;103276;1288;61364;-81
2023/10/11 02:05:50;;;;;;;;;;;;;;;21.72;28.80;101926.46;103012;1290;72423;-81
2023/10/11 02:08:17;;;;;;;;;;;;;;;21.72;28.82;101925.77;103033;1289;62696;-80
2023/10/11 02:10:45;;;;;;;;;;;;;;;21.72;28.77;101920.38;102774;1290;61399;-80
2023/10/11 02:13:11;;;;;;;;;;;;;;;21.72;28.77;101918.79;103061;1292;61625;-80
2023/10/11 02:15:39;;;;;;;;;;;;;;;21.72;28.79;101919.50;103065;1293;72439;-81
2023/10/11 02:18:07;;;;;;;;;;;;;;;21.72;28.66;101916.64;103142;1291;75692;-81
2023/10/11 02:20:34;;;;;;;;;;;;;;;21.72;28.76;101921.45;102909;1290;384417;-81
2023/10/11 02:23:00;;;;;;;;;;;;;;;21.71;28.70;101918.99;103263;1288;61382;-82
2023/10/11 02:25:26;;;;;;;;;;;;;;;21.71;28.70;101916.48;103121;1288;73368;-80
2023/10/11 02:27:52;;;;;;;;;;;;;;;21.72;28.76;101912.52;102851;1288;61408;-81
2023/10/11 02:30:27;;;;;;;;;;;;;;;21.71;28.74;101914.35;103069;1292;62598;-80
2023/10/11 02:32:53;;;;;;;;;;;;;;;21.71;28.75;101916.30;102985;1288;61388;-81
2023/10/11 02:35:19;;;;;;;;;;;;;;;21.71;28.62;101920.44;103047;1290;61526;-81
2023/10/11 02:37:47;;;;;;;;;;;;;;;21.71;28.75;101914.15;103086;1292;61434;-83
2023/10/11 02:40:16;;;;;;;;;;;;;;;21.71;28.71;101911.84;103127;1288;62387;-82
2023/10/11 02:42:46;;;;;;;;;;;;;;;21.71;28.78;101913.98;103230;1291;61401;-81
2023/10/11 02:45:13;;;;;;;;;;;;;;;21.71;28.66;101915.25;103223;1290;73382;-81
2023/10/11 02:47:41;;;;;;;;;;;;;;;21.71;28.59;101912.58;102995;1288;74247;-81
2023/10/11 02:50:10;;;;;;;;;;;;;;;21.71;28.61;101915.41;103153;1292;61426;-80
2023/10/11 02:52:37;;;;;;;;;;;;;;;21.71;28.72;101911.84;102940;1288;62301;-80
2023/10/11 02:55:13;;;;;;;;;;;;;;;21.71;28.61;101907.92;102891;1296;61468;-80
2023/10/11 02:57:40;;;;;;;;;;;;;;;21.71;28.74;101909.52;102773;1291;75404;-81
2023/10/11 03:00:21;;;;;;;;;;;;;;;21.70;28.79;101908.99;103066;1290;61450;-81
2023/10/11 03:02:54;;;;;;;;;;;;;;;21.70;28.73;101903.98;102812;1288;62026;-82
2023/10/11 03:05:27;;;;;;;;;;;;;;;21.71;28.87;101901.10;102819;1291;72512;-81
2023/10/11 03:08:02;;;;;;;;;;;;;;;21.70;28.62;101901.66;102786;1296;74505;-81
2023/10/11 03:10:30;;;;;;;;;;;;;;;21.71;28.78;101902.35;102832;1291;61396;-82
2023/10/11 03:12:56;;;;;;;;;;;;;;;21.71;28.77;101903.42;102894;1294;61959;-80
2023/10/11 03:15:21;;;;;;;;;;;;;;;21.70;28.71;101902.58;102761;1291;61465;-82
2023/10/11 03:17:52;;;;;;;;;;;;;;;21.70;28.73;101907.38;102893;1291;62657;-82
2023/10/11 03:20:36;;;;;;;;;;;;;;;21.70;28.66;101909.89;102791;1293;61408;-80
2023/10/11 03:23:10;;;;;;;;;;;;;;;21.70;28.60;101909.19;102891;1289;61390;-81
2023/10/11 03:25:38;;;;;;;;;;;;;;;21.70;28.57;101908.13;103140;1288;73585;-80
2023/10/11 03:28:05;;;;;;;;;;;;;;;21.70;28.62;101903.29;103032;1289;74468;-80
2023/10/11 03:30:35;;;;;;;;;;;;;;;21.70;28.74;101907.02;103014;1293;61466;-80
2023/10/11 03:33:06;;;;;;;;;;;;;;;21.70;28.69;101910.45;103082;1291;61214;-80
2023/10/11 03:35:38;;;;;;;;;;;;;;;21.70;28.58;101916.75;103174;1288;72636;-81
2023/10/11 03:38:16;;;;;;;;;;;;;;;21.69;28.58;101916.98;103178;1288;74371;-82
2023/10/11 03:40:54;;;;;;;;;;;;;;;21.69;28.71;101921.45;103037;1293;62276;-81
2023/10/11 03:43:20;;;;;;;;;;;;;;;21.68;28.72;101920.59;103099;1290;61360;-80
2023/10/11 03:45:51;;;;;;;;;;;;;;;21.68;28.63;101920.08;103215;1291;61394;-80
2023/10/11 03:48:17;;;;;;;;;;;;;;;21.68;28.62;101924.75;103073;1291;73380;-81
2023/10/11 03:50:51;;;;;;;;;;;;;;;21.67;28.55;101929.60;103181;1288;61374;-81
2023/10/11 03:53:18;;;;;;;;;;;;;;;21.66;28.65;101930.36;103153;1288;61356;-81
2023/10/11 03:55:47;;;;;;;;;;;;;;;21.66;28.49;101927.52;103007;1292;73573;-81
2023/10/11 03:58:57;;;;;;;;;;;;;;;21.66;28.58;101930.40;103177;1289;74525;-80
2023/10/11 04:01:23;;;;;;;;;;;;;;;21.65;28.70;101932.05;103102;1288;61882;-80
2023/10/11 04:03:49;;;;;;;;;;;;;;;21.64;28.47;101934.60;103016;1288;61364;-80
2023/10/11 04:06:15;;;;;;;;;;;;;;;21.65;28.59;101940.86;103121;1287;61337;-82
2023/10/11 04:08:47;;;;;;;;;;;;;;;21.64;28.64;101936.95;103314;1293;62702;-81
2023/10/11 04:11:19;;;;;;;;;;;;;;;21.64;28.60;101938.75;103062;1292;61367;-80
2023/10/11 04:13:50;;;;;;;;;;;;;;;21.64;28.52;101934.45;103348;1288;61300;-80
2023/10/11 04:16:17;;;;;;;;;;;;;;;21.64;28.43;101937.69;103291;1288;72527;-81
2023/10/11 04:18:43;;;;;;;;;;;;;;;21.64;28.47;101937.70;103073;1288;74223;-80
2023/10/11 04:23:36;;;;;;;;;;;;;;;21.63;28.32;101942.17;103282;1288;61428;-82
2023/10/11 04:26:23;;;;;;;;;;;;;;;21.63;28.44;101949.05;103007;1288;72329;-82
2023/10/11 04:28:51;;;;;;;;;;;;;;;21.62;28.45;101955.16;103200;1287;73470;-81
2023/10/11 04:31:42;;;;;;;;;;;;;;;21.62;28.38;101962.50;103364;1289;61415;-80
2023/10/11 04:34:11;;;;;;;;;;;;;;;21.62;28.33;101966.61;103320;1290;61403;-80
2023/10/11 04:36:42;;;;;;;;;;;;;;;21.62;28.38;101974.69;103362;1289;73310;-81
2023/10/11 04:39:27;;;;;;;;;;;;;;;21.59;28.38;101978.39;103545;1290;74474;-80
2023/10/11 04:41:56;;;;;;;;;;;;;;;21.56;28.32;101985.73;103621;1286;62152;-81
2023/10/11 04:44:22;;;;;;;;;;;;;;;21.54;28.29;101992.33;103902;1287;62379;-81
2023/10/11 04:46:57;;;;;;;;;;;;;;;21.51;28.25;101997.84;103998;1288;61377;-81
2023/10/11 04:49:24;;;;;;;;;;;;;;;21.47;28.33;101999.31;103976;1291;74544;-80
2023/10/11 04:51:55;;;;;;;;;;;;;;;21.43;28.26;102008.44;103989;1288;61273;-81
2023/10/11 04:54:21;;;;;;;;;;;;;;;21.40;28.30;102014.72;104248;1288;61360;-80
2023/10/11 05:04:33;;;;;;;;;;;;;;;21.23;28.03;102039.74;104467;1288;61424;-81
2023/10/11 05:07:03;;;;;;;;;;;;;;;21.18;27.93;102045.75;104128;1291;72633;-81
2023/10/11 05:09:39;;;;;;;;;;;;;;;21.16;28.17;102050.88;104312;1289;74965;-80
2023/10/11 05:14:40;;;;;;;;;;;;;;;21.11;28.15;102062.77;104495;1288;61322;-80
2023/10/11 05:27:56;;;;;;;;;;;;;;;20.83;27.77;102074.00;103603;1299;73513;-81
2023/10/11 05:52:13;;;;;;;;;;;;;;;20.33;26.97;102095.59;103301;1300;74650;-82
2023/10/11 05:54:40;;;;;;;;;;;;;;;20.12;26.95;102101.04;103720;1300;61529;-81
2023/10/11 05:57:05;;;;;;;;;;;;;;;19.81;26.77;102101.70;103663;1294;61182;-82
2023/10/11 05:59:32;;;;;;;;;;;;;;;19.62;27.07;102104.15;104085;1294;59624;-81
2023/10/11 06:01:57;;;;;;;;;;;;;;;19.43;27.07;102107.65;104384;1293;61351;-82
2023/10/11 06:04:23;;;;;;;;;;;;;;;19.35;27.31;102102.81;103850;1300;61285;-81
2023/10/11 06:06:57;;;;;;;;;;;;;;;19.47;27.39;102098.02;104483;1286;63207;-82
2023/10/11 06:09:26;;;;;;;;;;;;;;;19.64;27.57;102098.69;104043;1288;71477;-82
2023/10/11 06:11:52;;;;;;;;;;;;;;;19.77;27.47;102103.84;104395;1288;75568;-82
2023/10/11 06:14:17;;;;;;;;;;;;;;;19.90;27.62;102108.43;104627;1288;64541;-82
2023/10/11 06:16:49;;;;;;;;;;;;;;;20.01;27.40;102114.20;104626;1286;61332;-82
2023/10/11 06:19:25;;;;;;;;;;;;;;;20.07;27.63;102118.38;104952;1286;72558;-81
2023/10/11 06:22:00;;;;;;;;;;;;;;;20.13;27.50;102118.14;104508;1290;74985;-82
2023/10/11 06:24:26;;;;;;;;;;;;;;;20.17;27.57;102114.89;104725;1288;59726;-81
2023/10/11 06:26:52;;;;;;;;;;;;;;;20.24;27.52;102116.88;104576;1287;61316;-81
2023/10/11 06:29:24;;;;;;;;;;;;;;;20.31;27.58;102115.15;104492;1288;59766;-81
2023/10/11 06:32:11;;;;;;;;;;;;;;;20.36;27.54;102116.14;104820;1287;74256;-81
2023/10/11 06:34:38;;;;;;;;;;;;;;;20.41;27.50;102113.76;104593;1287;61392;-81
2023/10/11 06:37:06;;;;;;;;;;;;;;;20.47;27.51;102112.25;104648;1288;61360;-81
2023/10/11 06:40:08;;;;;;;;;;;;;;;20.51;27.35;102119.91;104071;1288;71173;-81
2023/10/11 06:44:47;;;;;;;;;;;;;;;20.59;27.28;102121.48;104474;1290;61402;-81
2023/10/11 06:47:19;;;;;;;;;;;;;;;20.63;27.48;102123.27;105741;1287;61254;-80
2023/10/11 06:49:48;;;;;;;;;;;;;;;20.66;27.42;102122.75;104400;1287;72580;-81
2023/10/11 06:52:19;;;;;;;;;;;;;;;20.69;27.38;102124.80;104686;1290;74498;-82
2023/10/11 06:54:47;;;;;;;;;;;;;;;20.58;27.24;102124.60;104572;1290;61425;-82
2023/10/11 06:57:21;;;;;;;;;;;;;;;20.27;27.31;102128.16;104399;1288;61362;-81
2023/10/11 06:59:51;;;;;;;;;;;;;;;20.09;27.31;102128.84;104635;1288;72374;-82
2023/10/11 07:02:31;;;;;;;;;;;;;;;19.91;27.50;102128.95;106224;1287;75683;-81
2023/10/11 07:05:17;;;;;;;;;;;;;;;19.83;27.69;102123.09;106162;1289;59780;-82
2023/10/11 07:07:47;;;;;;;;;;;;;;;19.84;27.83;102124.79;106216;1287;61091;-82
2023/10/11 07:10:28;;;;;;;;;;;;;;;19.83;27.80;102125.75;106123;1288;73240;-82
2023/10/11 07:13:03;;;;;;;;;;;;;;;19.89;27.90;102129.77;106222;1286;75478;-82
2023/10/11 07:16:07;;;;;;;;;;;;;;;19.94;27.82;102125.43;106289;1286;59055;-82
2023/10/11 07:18:39;;;;;;;;;;;;;;;19.92;27.81;102128.35;105871;1291;60327;-82
2023/10/11 07:21:09;;;;;;;;;;;;;;;19.94;27.83;102126.50;105745;1292;73053;-81
2023/10/11 07:23:35;;;;;;;;;;;;;;;19.96;27.78;102126.23;105715;1292;74507;-82
2023/10/11 07:26:22;;;;;;;;;;;;;;;20.02;27.82;102123.65;105755;1293;59672;-82
2023/10/11 07:28:50;;;;;;;;;;;;;;;20.06;27.74;102125.93;105880;1291;59975;-81
2023/10/11 07:31:17;;;;;;;;;;;;;;;20.08;27.63;102125.14;105723;1292;72317;-81
2023/10/11 07:33:43;;;;;;;;;;;;;;;20.10;27.75;102126.83;105830;1291;59293;-81
2023/10/11 07:36:11;;;;;;;;;;;;;;;20.07;27.59;102121.80;105863;1291;59343;-82
2023/10/11 07:38:43;;;;;;;;;;;;;;;20.06;27.58;102122.20;105788;1292;60959;-82
2023/10/11 07:41:17;;;;;;;;;;;;;;;20.09;27.61;102120.98;105753;1292;71559;-81
2023/10/11 07:43:43;;;;;;;;;;;;;;;20.16;27.61;102120.84;105773;1291;75233;-81
2023/10/11 07:46:08;;;;;;;;;;;;;;;20.22;27.56;102118.94;105800;1292;60277;-81
2023/10/11 07:48:35;;;;;;;;;;;;;;;20.28;27.30;102117.61;105794;1292;59086;-81
2023/10/11 07:51:09;;;;;;;;;;;;;;;20.22;27.48;102117.33;105853;1293;59031;-81
2023/10/11 07:53:41;;;;;;;;;;;;;;;20.10;27.27;102112.21;105699;1292;75491;-81
2023/10/11 07:56:08;;;;;;;;;;;;;;;19.89;27.25;102112.58;106263;1286;61021;-81
2023/10/11 07:58:34;;;;;;;;;;;;;;;19.78;27.45;102115.75;106433;1286;61336;-82
2023/10/11 08:01:14;;;;;;;;;;;;;;;19.70;27.51;102113.09;106149;1288;72578;-81
2023/10/11 08:03:44;;;;;;;;;;;;;;;19.52;27.31;102115.63;106106;1286;74362;-81
2023/10/11 08:06:12;;;;;;;;;;;;;;;19.48;27.42;102111.17;106051;1288;59999;-81
2023/10/11 08:08:38;;;;;;;;;;;;;;;19.55;27.51;102112.86;106306;1287;61383;-82
2023/10/11 08:11:06;;;;;;;;;;;;;;;19.64;27.53;102112.24;106290;1286;60036;-81
2023/10/11 08:13:32;;;;;;;;;;;;;;;19.72;27.47;102110.30;106181;1287;74537;-82
2023/10/11 08:15:59;;;;;;;;;;;;;;;19.70;27.36;102108.80;106185;1286;59449;-82
2023/10/11 08:18:26;;;;;;;;;;;;;;;19.70;27.41;102108.77;106384;1286;59370;-81
2023/10/11 08:20:52;;;;;;;;;;;;;;;19.76;27.41;102114.95;106357;1287;73440;-81
2023/10/11 08:23:29;;;;;;;;;;;;;;;19.81;27.33;102113.32;106167;1286;59103;-81
2023/10/11 08:25:58;;;;;;;;;;;;;;;19.89;27.45;102112.63;106066;1288;59988;-82
2023/10/11 08:28:34;;;;;;;;;;;;;;;19.98;27.17;102114.35;106340;1288;60295;-82
2023/10/11 08:30:59;;;;;;;;;;;;;;;20.05;27.18;102114.02;106305;1287;72371;-81
2023/10/11 08:33:25;;;;;;;;;;;;;;;20.09;27.23;102114.94;106148;1286;59717;-82
2023/10/11 08:35:54;;;;;;;;;;;;;;;20.16;27.22;102115.13;106235;1286;59018;-82
2023/10/11 08:38:20;;;;;;;;;;;;;;;20.22;27.29;102115.89;106291;1286;60439;-82
2023/10/11 08:40:50;;;;;;;;;;;;;;;20.30;27.03;102116.96;105295;1288;61307;-81
2023/10/11 08:43:16;;;;;;;;;;;;;;;20.38;27.22;102117.85;104538;1288;74609;-81
2023/10/11 08:45:59;;;;;;;;;;;;;;;20.41;27.14;102118.77;104487;1288;61313;-81
2023/10/11 08:48:25;;;;;;;;;;;;;;;20.40;27.07;102109.73;104682;1287;61283;-81
2023/10/11 08:50:55;;;;;;;;;;;;;;;20.37;27.14;102113.59;104477;1287;61468;-81
2023/10/11 08:53:21;;;;;;;;;;;;;;;20.35;27.17;102115.85;104612;1288;73410;-82
2023/10/11 08:55:49;;;;;;;;;;;;;;;20.30;27.07;102113.43;105258;1288;60883;-82
2023/10/11 08:58:23;;;;;;;;;;;;;;;20.25;27.19;102117.56;104934;1288;61127;-82
2023/10/11 09:00:55;;;;;;;;;;;;;;;20.20;27.19;102115.33;104550;1293;71091;-80
2023/10/11 09:03:22;;;;;;;;;;;;;;;20.16;27.26;102115.83;104948;1286;74213;-82
2023/10/11 09:05:54;;;;;;;;;;;;;;;20.07;27.45;102118.41;105157;1288;61303;-81
2023/10/11 09:08:27;;;;;;;;;;;;;;;19.97;27.56;102116.36;105211;1288;60805;-82
2023/10/11 09:10:52;;;;;;;;;;;;;;;19.91;27.64;102113.06;105095;1287;72526;-81
2023/10/11 09:13:26;;;;;;;;;;;;;;;19.90;27.71;102121.66;104966;1288;61703;-81
2023/10/11 09:15:54;;;;;;;;;;;;;;;19.86;27.54;102118.29;104704;1287;61364;-80
2023/10/11 09:18:28;;;;;;;;;;;;;;;19.81;27.75;102112.80;104609;1286;61334;-81
2023/10/11 09:21:12;;;;;;;;;;;;;;;19.76;27.78;102112.43;106130;1288;73761;-81
2023/10/11 09:23:46;;;;;;;;;;;;;;;19.84;27.91;102111.76;105769;1288;73263;-80
2023/10/11 09:26:13;;;;;;;;;;;;;;;19.93;27.85;102114.95;105677;1287;61328;-80
2023/10/11 09:28:40;;;;;;;;;;;;;;;20.01;27.81;102109.40;104267;1288;61302;-80
2023/10/11 09:31:11;;;;;;;;;;;;;;;20.09;27.83;102105.42;104501;1288;74266;-80
2023/10/11 09:34:18;;;;;;;;;;;;;;;;;;;;;
2023/10/11 09:36:38;;;;;;;;;;;;;;;20.27;28.01;102106.90;104405;1291;61287;-81
2023/10/11 09:39:03;;;;;;;;;;;;;;;20.33;27.76;102109.66;104618;1288;61338;-82
2023/10/11 09:41:38;;;;;;;;;;;;;;;20.38;27.82;102105.85;104663;1288;62619;-84
2023/10/11 09:44:04;;;;;;;;;;;;;;;20.40;27.82;102100.05;104701;1291;74422;-82
2023/10/11 09:46:31;;;;;;;;;;;;;;;20.38;27.84;102096.22;104570;1287;61406;-84
2023/10/11 09:48:57;;;;;;;;;;;;;;;20.38;27.88;102095.49;104539;1287;61387;-81
2023/10/11 09:51:24;;;;;;;;;;;;;;;20.39;27.71;102092.42;104167;1293;59435;-83
2023/10/11 09:53:51;;;;;;;;;;;;;;;20.39;27.85;102088.99;104179;1287;74528;-81
2023/10/11 09:56:19;;;;;;;;;;;;;;;20.41;27.88;102088.20;104154;1288;61356;-81
2023/10/11 09:58:45;;;;;;;;;;;;;;;20.45;27.71;102084.79;104533;1287;61277;-80
2023/10/11 10:01:18;;;;;;;;;;;;;;;20.48;27.81;102081.98;104669;1288;59759;-81
2023/10/11 10:03:52;;;;;;;;;;;;;;;20.42;27.89;102078.70;104715;1288;74693;-79
2023/10/11 10:06:24;;;;;;;;;;;;;;;20.31;27.80;102081.69;104983;1288;60909;-79
2023/10/11 10:09:23;;;;;;;;;;;;;;;20.23;27.92;102075.82;104949;1288;60098;-80
2023/10/11 10:12:05;;;;;;;;;;;;;;;20.20;27.94;102069.18;105117;1287;73511;-81
2023/10/11 10:14:35;;;;;;;;;;;;;;;20.19;27.90;102068.34;104728;1287;74491;-80
2023/10/11 10:17:11;;;;;;;;;;;;;;;20.20;28.14;102069.17;106023;1287;61319;-79
2023/10/11 10:19:39;;;;;;;;;;;;;;;20.26;28.03;102067.12;104784;1288;61827;-80
2023/10/11 10:22:11;;;;;;;;;;;;;;;20.29;28.01;102062.70;104374;1287;72686;-80
2023/10/11 10:24:37;;;;;;;;;;;;;;;20.31;28.05;102062.24;104652;1287;74390;-80
2023/10/11 10:27:21;;;;;;;;;;;;;;;20.36;28.07;102053.93;104357;1287;61375;-81
2023/10/11 10:29:59;;;;;;;;;;;;;;;20.42;28.03;102048.80;104296;1288;61388;-80
2023/10/11 10:32:25;;;;;;;;;;;;;;;20.47;28.23;102048.38;104301;1291;72853;-81
2023/10/11 10:35:18;;;;;;;;;;;;;;;20.52;28.17;102047.97;104213;1288;61412;-81
2023/10/11 10:37:46;;;;;;;;;;;;;;;20.57;28.05;102046.31;104349;1287;62846;-80
2023/10/11 10:40:27;;;;;;;;;;;;;;;20.59;28.00;102032.75;104577;1288;61252;-81
2023/10/11 10:43:19;;;;;;;;;;;;;;;20.62;27.97;102031.39;104378;1293;72722;-81
2023/10/11 10:45:59;;;;;;;;;;;;;;;20.60;28.01;102029.36;104536;1287;75916;-81
2023/10/11 10:48:25;;;;;;;;;;;;;;;20.51;28.03;102031.55;104317;1288;61179;-81
2023/10/11 10:50:51;;;;;;;;;;;;;;;20.40;27.94;102030.84;104664;1288;61844;-81
2023/10/11 10:53:18;;;;;;;;;;;;;;;20.35;28.01;102021.98;104643;1288;72317;-81
2023/10/11 10:55:44;;;;;;;;;;;;;;;20.37;27.99;102019.58;104689;1291;62561;-81
2023/10/11 10:58:16;;;;;;;;;;;;;;;20.41;27.97;102013.27;104446;1290;60218;-82
2023/10/11 11:00:43;;;;;;;;;;;;;;;20.46;28.12;102013.21;104604;1287;61389;-81
2023/10/11 11:03:22;;;;;;;;;;;;;;;20.48;28.04;102008.85;105234;1288;72459;-82
2023/10/11 11:05:55;;;;;;;;;;;;;;;20.42;27.89;102004.98;105142;1288;75565;-81
2023/10/11 11:08:24;;;;;;;;;;;;;;;20.32;27.86;102004.45;105008;1292;61586;-81
2023/10/11 11:11:27;;;;;;;;;;;;;;;20.25;27.98;102008.67;104920;1288;61270;-82
2023/10/11 11:13:52;;;;;;;;;;;;;;;20.20;28.22;102005.92;104933;1290;72283;-82
2023/10/11 11:16:29;;;;;;;;;;;;;;;20.23;28.22;102004.14;104366;1287;61372;-82
2023/10/11 11:19:00;;;;;;;;;;;;;;;20.32;28.15;101998.70;104331;1289;61352;-81
2023/10/11 11:21:29;;;;;;;;;;;;;;;20.39;28.04;102000.13;104411;1287;61266;-81
2023/10/11 11:24:14;;;;;;;;;;;;;;;20.43;28.16;102000.31;104511;1288;72270;-82
2023/10/11 11:26:40;;;;;;;;;;;;;;;20.41;27.97;102001.46;104578;1287;74118;-80
2023/10/11 11:29:10;;;;;;;;;;;;;;;20.40;28.04;101997.40;104252;1288;61509;-81
2023/10/11 11:31:51;;;;;;;;;;;;;;;20.40;28.07;101994.91;104519;1288;61314;-80
2023/10/11 11:34:26;;;;;;;;;;;;;;;20.41;28.11;101999.49;104267;1290;73971;-79
2023/10/11 11:36:56;;;;;;;;;;;;;;;20.43;28.00;101991.71;104735;1288;74281;-80
2023/10/11 11:39:26;;;;;;;;;;;;;;;20.46;28.12;101990.89;104264;1293;61340;-81
2023/10/11 11:41:53;;;;;;;;;;;;;;;20.46;28.11;101987.63;104646;1288;61268;-80
2023/10/11 11:44:20;;;;;;;;;;;;;;;20.45;28.06;101987.17;104188;1288;72302;-81
2023/10/11 11:46:48;;;;;;;;;;;;;;;20.41;28.11;101980.74;104377;1288;74825;-81
2023/10/11 11:49:18;;;;;;;;;;;;;;;20.42;28.14;101979.08;104359;1288;61275;-81
2023/10/11 11:51:43;;;;;;;;;;;;;;;20.43;28.28;101975.07;104076;1288;61308;-79
2023/10/11 11:54:16;;;;;;;;;;;;;;;20.45;28.32;101973.75;104509;1288;61279;-80
2023/10/11 11:56:43;;;;;;;;;;;;;;;20.47;28.43;101972.21;105042;1286;75542;-81
2023/10/11 11:59:17;;;;;;;;;;;;;;;20.48;28.38;101972.16;104916;1288;61254;-81
2023/10/11 12:01:53;;;;;;;;;;;;;;;20.50;28.47;101965.27;106054;1288;60270;-81
2023/10/11 12:04:28;;;;;;;;;;;;;;;20.51;28.52;101966.99;105901;1288;72855;-82
2023/10/11 12:06:57;;;;;;;;;;;;;;;20.44;28.50;101961.25;106003;1288;74622;-81
2023/10/11 12:09:22;;;;;;;;;;;;;;;20.39;28.43;101958.14;106075;1291;60238;-81
2023/10/11 12:11:53;;;;;;;;;;;;;;;20.39;28.57;101954.72;105933;1288;59473;-81
2023/10/11 12:14:22;;;;;;;;;;;;;;;20.43;28.57;101957.57;106012;1288;73532;-81
2023/10/11 12:16:48;;;;;;;;;;;;;;;20.46;28.73;101956.90;105922;1286;74665;-82
2023/10/11 12:19:14;;;;;;;;;;;;;;;20.52;28.73;101953.17;106122;1286;58967;-81
2023/10/11 12:21:40;;;;;;;;;;;;;;;20.59;28.81;101948.52;106168;1288;60349;-80
2023/10/11 12:24:11;;;;;;;;;;;;;;;20.66;28.76;101939.79;106241;1288;72339;-81
2023/10/11 12:26:40;;;;;;;;;;;;;;;20.72;29.12;101941.44;106125;1288;58842;-81
2023/10/11 12:29:09;;;;;;;;;;;;;;;20.84;29.44;101938.02;106310;1288;60151;-82
2023/10/11 12:31:38;;;;;;;;;;;;;;;20.94;29.44;101941.23;106128;1288;62261;-81
2023/10/11 12:34:10;;;;;;;;;;;;;;;20.99;29.42;101940.25;106153;1286;73964;-81
2023/10/11 12:36:38;;;;;;;;;;;;;;;21.01;29.37;101933.16;106286;1286;75388;-81
2023/10/11 12:39:05;;;;;;;;;;;;;;;21.04;29.41;101932.27;106306;1286;59974;-80
2023/10/11 12:41:31;;;;;;;;;;;;;;;21.07;29.37;101929.43;106139;1288;60154;-81
2023/10/11 12:43:56;;;;;;;;;;;;;;;21.09;29.35;101926.65;106264;1289;58868;-80
2023/10/11 12:46:23;;;;;;;;;;;;;;;21.11;29.31;101926.02;106095;1286;60606;-80
2023/10/11 12:48:54;;;;;;;;;;;;;;;21.13;29.25;101926.09;105622;1288;59291;-79
2023/10/11 12:51:21;;;;;;;;;;;;;;;21.14;29.21;101921.55;104855;1286;61205;-81
2023/10/11 12:53:47;;;;;;;;;;;;;;;21.15;29.22;101919.55;104896;1292;71240;-81
2023/10/11 12:56:12;;;;;;;;;;;;;;;21.15;29.13;101917.74;104849;1286;60627;-80
2023/10/11 12:58:40;;;;;;;;;;;;;;;21.16;29.01;101913.77;105002;1287;61287;-80
2023/10/11 13:01:11;;;;;;;;;;;;;;;21.16;29.09;101911.79;105175;1288;61301;-82
2023/10/11 13:03:40;;;;;;;;;;;;;;;21.13;29.18;101908.01;105083;1291;72576;-81
2023/10/11 13:06:09;;;;;;;;;;;;;;;21.08;28.96;101908.99;105002;1286;75534;-81
2023/10/11 13:08:36;;;;;;;;;;;;;;;21.04;29.19;101905.59;104967;1288;61188;-81
2023/10/11 13:11:05;;;;;;;;;;;;;;;21.04;29.23;101900.56;105088;1286;61189;-81
2023/10/11 13:13:32;;;;;;;;;;;;;;;21.06;29.09;101903.21;104907;1286;73552;-81
2023/10/11 13:16:01;;;;;;;;;;;;;;;21.04;29.31;101903.29;104977;1287;75528;-82
2023/10/11 13:18:33;;;;;;;;;;;;;;;21.02;29.14;101899.26;104913;1288;60873;-82
2023/10/11 13:21:02;;;;;;;;;;;;;;;21.02;29.10;101894.11;105197;1286;60075;-81
2023/10/11 13:23:30;;;;;;;;;;;;;;;21.02;29.22;101894.08;104833;1288;72593;-82
2023/10/11 13:25:56;;;;;;;;;;;;;;;21.04;29.07;101888.81;104667;1290;74542;-82
2023/10/11 13:28:21;;;;;;;;;;;;;;;21.05;29.11;101887.65;104735;1286;61478;-81
2023/10/11 13:30:47;;;;;;;;;;;;;;;21.06;29.06;101884.04;104655;1286;61438;-82
2023/10/11 13:33:15;;;;;;;;;;;;;;;21.07;29.03;101882.91;104246;1293;61252;-81